Aeroporto :
LOGIN :

Iscrizione | Disclaimer

   EN    FR    IT 

 










Sommario :    VFR   VFR Marginale   IFR   IFR Intensivo   IFR Molto Intensivo
Visibilità : 
Base nubi : 
>= 8 km
>= 3000ft
5 / 8 km
1000 / 3000 ft
1500m / 5 km
500 / 1000 ft
800 / 1500m
200 / 500 ft
< 800m
< 200 ft
Simboli :   Temporali  Nebbia  Neve Forte  Precipitazioni Forti  Vento > 20 kt
SIGMETs :   Varie  Temporali  Ghiacco  Turbolenza  Onda orograficha  Ceneri Vulcaniche






- Altitudine del aeroporto : 200 ft


EBBL - Klein Brogel AB

ULTIMO METAR :
  • 131125Z 22007KT 9999 SCT013 SCT018 BKN042 08/07 Q1001 GRN WHT TEMPO GRN

METARs OBSOLETI :
  • 131115Z 22007KT 9999 SCT013 BKN040 07/06 Q1001 GRN WHT TEMPO GRN
  • 131055Z 22006KT 9999 SCT010 BKN040 07/06 Q1001 GRN WHT TEMPO YLO
  • 131025Z 22010KT 9999 -RA SCT007 BKN050 07/06 Q1001 GRN WHT TEMPO YLO
  • 130955Z 23010KT 9999 -RA SCT008 BKN050 07/06 Q1001 GRN WHT TEMPO YLO
  • 130855Z 22011KT 9999 SCT007 BKN050 06/05 Q1001 GRN WHT TEMPO YLO

TAF TAF EBBL
Valido dal 13 a 10 ore il 13 a 19 ore UTC


130841Z 1310/1319 23010KT 9999 SCT018 BKN040
BECMG 1310/1312 SCT025 BKN040
TEMPO 1310/1316 5000 -SHRA BKN018
PROB30
TEMPO 1310/1313 23010G20KT 4000 SHRA SCT007 BKN015
BECMG 1316/1318 18008KT SCT030



MetMap, La meteo Aeronautica in un colpo d'occhio ! - Copyright ORBIFLY Dicembre 2007 - Disclaimer

ORBIFLY MET'MAP TEAM :

Programmazione e sviluppo : Alexandra Zaïnal
Concezione e sviluppo : Baudouin d'Aumeries
Co-Programmazione e sviluppo : Marc-Olivier Méhu
Supporto tecnico e logistico : Manuel Goepfert
Aiuto per la traduzione : Arnaldo La Scala

Contatto : metmap@orbifly.com




FONTI E CREDITI :

   NOAA